Andrews, South Carolina
Current Conditions -  °F | °C
As of 11:55 PM on Sunday 21 Dec 2014 (Local Time) from KCKI Reporting Station
Drizzle Drizzle  
Wind Chill: 44°   Ceiling: NA
Heat Index: 46°   Visibility: 5mi
Dew Point: 46°   Wind: 5mph
Humidity: 100%   Direction: 40°NE
Pressure: 30.11"   Gusts: NA
Location:  33.45°N, 79.56°W
Report Text: KCKI 220455Z AUTO 04004KT 5SM -DZ 08/08 A3011 RMK AO2 P0005
Loading
Personal Weather Stations






























Interactive Weather Map New forecast layout! Learn more

10-Day Weather Forecast

Advertisements
Track Severe Weather on mobile